Time;durP1;ratioP1;P1;durP2;ratioP2;P2;SDS_P1;SDS_P2;PMS_P1;PMS_P2;Temp;Humidity;BMP_temperature;BMP_pressure;BME280_temperature;BME280_humidity;BME280_pressure;Samples;Min_cycle;Max_cycle;Signal;HPM_P1;HPM_P2
2021/12/04 00:00:26;;;;;;;15.55;11.90;;;;;;;;;;5097515;28;20196;-68
2021/12/04 00:02:53;;;;;;;14.05;11.40;;;;;;;;;;5097137;28;20230;-68
2021/12/04 00:05:23;;;;;;;14.85;11.55;;;;;;;;;;5097385;28;20194;-68
2021/12/04 00:07:50;;;;;;;14.15;11.93;;;;;;;;;;5097079;28;20201;-68
2021/12/04 00:10:20;;;;;;;15.02;12.32;;;;;;;;;;5097269;28;20193;-68
2021/12/04 00:12:47;;;;;;;19.50;14.70;;;;;;;;;;5097523;28;20282;-68
2021/12/04 00:15:15;;;;;;;15.98;13.13;;;;;;;;;;5096840;28;20286;-68
2021/12/04 00:17:42;;;;;;;19.75;15.30;;;;;;;;;;5097546;28;20210;-68
2021/12/04 00:20:10;;;;;;;13.85;12.20;;;;;;;;;;5097238;28;20195;-69
2021/12/04 00:22:39;;;;;;;12.63;11.38;;;;;;;;;;5096841;28;20666;-68
2021/12/04 00:25:07;;;;;;;14.70;12.35;;;;;;;;;;5097236;28;20728;-68
2021/12/04 00:27:34;;;;;;;16.00;12.10;;;;;;;;;;5096703;28;20290;-68
2021/12/04 00:30:01;;;;;;;15.10;11.65;;;;;;;;;;5097559;28;20229;-68
2021/12/04 00:32:31;;;;;;;15.60;12.50;;;;;;;;;;5096809;28;20278;-68
2021/12/04 00:35:08;;;;;;;14.00;12.18;;;;;;;;;;5096861;28;20583;-68
2021/12/04 00:37:51;;;;;;;18.42;12.25;;;;;;;;;;5097343;28;20207;-68
2021/12/04 00:51:30;;;;;;;12.60;11.30;;;;;;;;;;5096375;28;20185;-68
2021/12/04 00:53:57;;;;;;;13.85;11.98;;;;;;;;;;5096125;28;20244;-68
2021/12/04 00:56:26;;;;;;;16.27;12.20;;;;;;;;;;5096404;28;20200;-69
2021/12/04 00:58:53;;;;;;;15.63;11.45;;;;;;;;;;5096280;28;20289;-68
2021/12/04 01:01:21;;;;;;;17.98;11.82;;;;;;;;;;5096311;28;20277;-68
2021/12/04 01:03:48;;;;;;;12.55;11.35;;;;;;;;;;5096685;28;20281;-68
2021/12/04 01:06:15;;;;;;;14.13;11.32;;;;;;;;;;5096253;28;20196;-68
2021/12/04 01:08:42;;;;;;;12.93;10.85;;;;;;;;;;5095454;28;20202;-68
2021/12/04 01:11:10;;;;;;;14.05;11.13;;;;;;;;;;5095905;28;20683;-68
2021/12/04 01:13:38;;;;;;;15.85;12.45;;;;;;;;;;5096175;28;20195;-68
2021/12/04 01:16:06;;;;;;;13.18;11.77;;;;;;;;;;5096108;28;20286;-68
2021/12/04 01:18:34;;;;;;;15.73;11.35;;;;;;;;;;5095523;28;20266;-68
2021/12/04 01:21:01;;;;;;;13.23;10.07;;;;;;;;;;5095621;28;20286;-68
2021/12/04 01:23:28;;;;;;;14.48;10.55;;;;;;;;;;5096584;28;20279;-68
2021/12/04 01:25:55;;;;;;;11.07;9.90;;;;;;;;;;5095867;28;20248;-68
2021/12/04 01:28:22;;;;;;;12.82;9.68;;;;;;;;;;5096442;28;20225;-68
2021/12/04 01:30:51;;;;;;;13.13;10.13;;;;;;;;;;5095794;28;20258;-68
2021/12/04 01:33:18;;;;;;;12.90;9.82;;;;;;;;;;5095729;28;20257;-68
2021/12/04 01:35:45;;;;;;;13.85;9.02;;;;;;;;;;5095683;28;20237;-68
2021/12/04 01:38:13;;;;;;;16.92;9.73;;;;;;;;;;5095696;28;20320;-68
2021/12/04 01:40:40;;;;;;;11.88;9.43;;;;;;;;;;5095204;28;20225;-68
2021/12/04 01:43:07;;;;;;;12.95;9.65;;;;;;;;;;5095480;28;20550;-68
2021/12/04 01:45:35;;;;;;;17.98;13.80;;;;;;;;;;5095106;28;20229;-69
2021/12/04 01:48:04;;;;;;;14.65;11.02;;;;;;;;;;5094918;28;20289;-68
2021/12/04 01:50:32;;;;;;;11.05;9.90;;;;;;;;;;5094781;28;20234;-69
2021/12/04 01:52:59;;;;;;;11.27;9.75;;;;;;;;;;5095061;28;20672;-69
2021/12/04 01:55:27;;;;;;;10.18;9.18;;;;;;;;;;5094825;28;20195;-68
2021/12/04 01:57:55;;;;;;;11.15;8.60;;;;;;;;;;5094780;28;20773;-69
2021/12/04 02:00:22;;;;;;;9.00;7.70;;;;;;;;;;5095339;28;20723;-69
2021/12/04 02:02:50;;;;;;;9.93;8.57;;;;;;;;;;5095201;28;20285;-69
2021/12/04 02:05:18;;;;;;;9.57;8.57;;;;;;;;;;5094957;28;20662;-68
2021/12/04 02:07:46;;;;;;;9.82;8.82;;;;;;;;;;5094746;28;20247;-68
2021/12/04 02:10:13;;;;;;;10.10;8.57;;;;;;;;;;5094638;28;20286;-68
2021/12/04 02:12:40;;;;;;;9.55;8.38;;;;;;;;;;5095100;28;20246;-69
2021/12/04 02:15:11;;;;;;;10.80;9.73;;;;;;;;;;5094587;28;20238;-69
2021/12/04 02:17:39;;;;;;;12.27;8.63;;;;;;;;;;5094569;28;20253;-69
2021/12/04 02:20:11;;;;;;;9.32;8.43;;;;;;;;;;5093957;28;20202;-69
2021/12/04 02:22:39;;;;;;;9.20;7.78;;;;;;;;;;5094495;28;20700;-69
2021/12/04 02:25:08;;;;;;;9.15;8.02;;;;;;;;;;5094806;28;20248;-69
2021/12/04 02:27:36;;;;;;;9.45;8.35;;;;;;;;;;5094619;28;20201;-69
2021/12/04 02:30:04;;;;;;;10.45;9.45;;;;;;;;;;5094643;28;20193;-69
2021/12/04 02:32:32;;;;;;;10.93;9.45;;;;;;;;;;5094749;28;20288;-68
2021/12/04 02:35:00;;;;;;;11.77;8.63;;;;;;;;;;5094325;28;20230;-69
2021/12/04 02:37:28;;;;;;;9.65;8.75;;;;;;;;;;5094194;28;20309;-69
2021/12/04 02:39:59;;;;;;;9.93;8.75;;;;;;;;;;5094809;28;20614;-69
2021/12/04 02:42:28;;;;;;;9.63;8.27;;;;;;;;;;5095396;28;20182;-69
2021/12/04 02:44:55;;;;;;;15.45;9.13;;;;;;;;;;5094161;28;20265;-69
2021/12/04 02:47:23;;;;;;;13.20;7.88;;;;;;;;;;5094805;28;20303;-69
2021/12/04 02:49:50;;;;;;;8.52;7.70;;;;;;;;;;5094087;28;20290;-68
2021/12/04 02:52:18;;;;;;;14.23;8.05;;;;;;;;;;5094421;28;20621;-69
2021/12/04 02:54:47;;;;;;;9.15;8.18;;;;;;;;;;5094008;28;20210;-69
2021/12/04 02:57:16;;;;;;;8.90;8.00;;;;;;;;;;5093912;28;20256;-69
2021/12/04 02:59:43;;;;;;;9.52;8.35;;;;;;;;;;5093842;28;20286;-69
2021/12/04 03:02:17;;;;;;;9.52;8.50;;;;;;;;;;5093893;28;20239;-69
2021/12/04 03:04:44;;;;;;;10.57;8.98;;;;;;;;;;5094351;28;20193;-69
2021/12/04 03:07:11;;;;;;;10.15;9.10;;;;;;;;;;5094432;28;20286;-69
2021/12/04 03:09:39;;;;;;;12.70;8.20;;;;;;;;;;5093790;28;20289;-69
2021/12/04 03:12:08;;;;;;;9.50;8.55;;;;;;;;;;5094048;28;20200;-69
2021/12/04 03:14:35;;;;;;;11.50;8.38;;;;;;;;;;5094004;28;20277;-69
2021/12/04 03:17:03;;;;;;;21.95;10.65;;;;;;;;;;5093568;28;20238;-69
2021/12/04 03:19:30;;;;;;;11.25;9.90;;;;;;;;;;5093633;28;20231;-69
2021/12/04 03:21:57;;;;;;;12.38;9.75;;;;;;;;;;5093973;28;20283;-69
2021/12/04 03:24:25;;;;;;;13.70;9.07;;;;;;;;;;5093925;28;20220;-69
2021/12/04 03:26:53;;;;;;;12.85;10.77;;;;;;;;;;5093860;28;20205;-69
2021/12/04 03:29:24;;;;;;;12.25;10.38;;;;;;;;;;5093538;28;20286;-70
2021/12/04 03:32:11;;;;;;;13.13;10.32;;;;;;;;;;5093718;28;20631;-69
2021/12/04 03:40:22;;;;;;;13.40;9.65;;;;;;;;;;5093583;28;20659;-69
2021/12/04 03:42:50;;;;;;;11.90;10.25;;;;;;;;;;5094506;28;20216;-69
2021/12/04 03:45:19;;;;;;;10.80;9.52;;;;;;;;;;5093947;28;20199;-69
2021/12/04 03:47:48;;;;;;;14.80;9.85;;;;;;;;;;5093667;28;20195;-69
2021/12/04 03:50:16;;;;;;;11.85;10.30;;;;;;;;;;5094107;28;20195;-69
2021/12/04 03:52:43;;;;;;;11.43;10.18;;;;;;;;;;5093901;28;20299;-69
2021/12/04 03:55:11;;;;;;;15.15;10.18;;;;;;;;;;5093267;28;20230;-69
2021/12/04 03:57:44;;;;;;;11.10;9.82;;;;;;;;;;5093484;28;20306;-69
2021/12/04 04:00:12;;;;;;;19.58;10.70;;;;;;;;;;5093692;28;20538;-69
2021/12/04 04:02:41;;;;;;;12.27;10.73;;;;;;;;;;5094115;28;20196;-69
2021/12/04 04:05:08;;;;;;;17.40;10.40;;;;;;;;;;5093215;28;20290;-68
2021/12/04 04:07:36;;;;;;;12.00;9.90;;;;;;;;;;5093439;28;20196;-69
2021/12/04 04:10:03;;;;;;;13.20;11.20;;;;;;;;;;5093119;28;20230;-69
2021/12/04 04:12:30;;;;;;;12.90;10.82;;;;;;;;;;5093111;28;20282;-69
2021/12/04 04:14:58;;;;;;;13.80;11.57;;;;;;;;;;5093534;28;20232;-69
2021/12/04 04:17:28;;;;;;;18.92;11.68;;;;;;;;;;5093298;28;20226;-69
2021/12/04 04:19:57;;;;;;;15.07;12.40;;;;;;;;;;5093110;28;20188;-68
2021/12/04 04:22:24;;;;;;;13.02;11.15;;;;;;;;;;5093094;28;20680;-69
2021/12/04 04:24:52;;;;;;;14.40;10.95;;;;;;;;;;5092952;28;20201;-69
2021/12/04 04:27:19;;;;;;;17.50;14.02;;;;;;;;;;5093314;28;20283;-69
2021/12/04 04:29:46;;;;;;;16.80;13.38;;;;;;;;;;5093068;28;20236;-69
2021/12/04 04:32:13;;;;;;;18.08;13.30;;;;;;;;;;5093138;28;20233;-69
2021/12/04 04:34:41;;;;;;;13.65;12.20;;;;;;;;;;5092827;28;20787;-69
2021/12/04 04:37:18;;;;;;;17.95;13.80;;;;;;;;;;5093817;28;20198;-68
2021/12/04 04:59:17;;;;;;;17.25;12.57;;;;;;;;;;5096356;28;20209;-69
2021/12/04 05:10:39;;;;;;;17.60;11.55;;;;;;;;;;5048673;28;20661;-69
2021/12/04 05:13:09;;;;;;;15.10;12.18;;;;;;;;;;5086367;28;20202;-69
2021/12/04 05:15:41;;;;;;;15.27;10.15;;;;;;;;;;5090739;28;20182;-71
2021/12/04 05:18:18;;;;;;;15.00;10.73;;;;;;;;;;5091175;28;20601;-70
2021/12/04 05:20:52;;;;;;;15.70;10.75;;;;;;;;;;5090354;28;20216;-70
2021/12/04 05:23:20;;;;;;;13.48;11.48;;;;;;;;;;5090855;28;20231;-69
2021/12/04 05:25:47;;;;;;;13.13;10.05;;;;;;;;;;5090520;28;20286;-70
2021/12/04 05:28:14;;;;;;;15.43;10.27;;;;;;;;;;5090769;28;20230;-69
2021/12/04 05:30:41;;;;;;;14.45;10.98;;;;;;;;;;5090411;28;20669;-69
2021/12/04 05:33:08;;;;;;;12.63;10.48;;;;;;;;;;5090700;28;20286;-69
2021/12/04 05:35:36;;;;;;;12.50;9.27;;;;;;;;;;5090930;28;20278;-70
2021/12/04 05:38:04;;;;;;;13.15;10.30;;;;;;;;;;5090275;28;20201;-69
2021/12/04 05:40:32;;;;;;;17.67;11.70;;;;;;;;;;5090575;28;20199;-70
2021/12/04 05:43:02;;;;;;;15.85;11.20;;;;;;;;;;5090458;28;20251;-70
2021/12/04 05:45:30;;;;;;;16.33;11.02;;;;;;;;;;5090489;28;20197;-69
2021/12/04 05:48:02;;;;;;;14.05;11.18;;;;;;;;;;5090367;28;20207;-69
2021/12/04 05:50:56;;;;;;;14.93;10.90;;;;;;;;;;5089896;28;20188;-70
2021/12/04 05:53:27;;;;;;;14.25;10.95;;;;;;;;;;5090289;28;20196;-70
2021/12/04 05:55:55;;;;;;;13.60;10.68;;;;;;;;;;5089989;28;20195;-69
2021/12/04 05:58:23;;;;;;;14.35;10.02;;;;;;;;;;5090151;28;20202;-69
2021/12/04 06:00:50;;;;;;;12.52;8.65;;;;;;;;;;5089850;28;20230;-70
2021/12/04 06:03:18;;;;;;;13.73;10.15;;;;;;;;;;5089745;28;20267;-69
2021/12/04 06:05:45;;;;;;;13.18;9.98;;;;;;;;;;5090091;28;20224;-69
2021/12/04 06:08:13;;;;;;;13.80;10.55;;;;;;;;;;5089997;28;20239;-69
2021/12/04 06:10:41;;;;;;;13.98;11.82;;;;;;;;;;5089834;28;20378;-69
2021/12/04 06:13:09;;;;;;;13.35;10.80;;;;;;;;;;5090155;28;20285;-69
2021/12/04 06:15:37;;;;;;;14.77;10.65;;;;;;;;;;5078152;28;20196;-69
2021/12/04 06:18:04;;;;;;;11.40;10.20;;;;;;;;;;5076364;28;20277;-69
2021/12/04 06:23:17;;;;;;;12.05;10.10;;;;;;;;;;5075896;28;20578;-70
2021/12/04 06:25:45;;;;;;;13.85;10.32;;;;;;;;;;5076186;28;20344;-70
2021/12/04 06:28:13;;;;;;;11.23;10.00;;;;;;;;;;5076710;28;20208;-70
2021/12/04 06:30:42;;;;;;;15.60;10.88;;;;;;;;;;5075779;28;20291;-70
2021/12/04 06:33:09;;;;;;;13.30;10.68;;;;;;;;;;5075826;28;20201;-69
2021/12/04 06:35:40;;;;;;;11.80;10.38;;;;;;;;;;5076344;28;20283;-69
2021/12/04 06:38:08;;;;;;;12.82;10.30;;;;;;;;;;5076263;28;20277;-69
2021/12/04 06:40:35;;;;;;;16.92;11.60;;;;;;;;;;5075324;28;20288;-70
2021/12/04 06:43:04;;;;;;;15.98;11.15;;;;;;;;;;5075459;28;20241;-70
2021/12/04 06:45:33;;;;;;;15.73;12.85;;;;;;;;;;5075141;28;20300;-70
2021/12/04 06:48:03;;;;;;;15.63;12.30;;;;;;;;;;5075499;28;20275;-70
2021/12/04 06:50:38;;;;;;;13.65;12.20;;;;;;;;;;5075776;28;20226;-70
2021/12/04 06:53:13;;;;;;;13.40;10.32;;;;;;;;;;5075933;28;20189;-70
2021/12/04 06:55:44;;;;;;;17.50;12.63;;;;;;;;;;5075616;28;20223;-70
2021/12/04 06:58:13;;;;;;;18.20;12.00;;;;;;;;;;5074978;28;20307;-70
2021/12/04 07:00:40;;;;;;;14.80;11.55;;;;;;;;;;5075191;28;20207;-70
2021/12/04 07:03:08;;;;;;;16.85;12.25;;;;;;;;;;5074849;28;20264;-70
2021/12/04 07:05:35;;;;;;;19.23;12.57;;;;;;;;;;5075279;28;20617;-70
2021/12/04 07:08:04;;;;;;;16.70;12.90;;;;;;;;;;5074723;28;20724;-70
2021/12/04 07:10:31;;;;;;;16.10;13.27;;;;;;;;;;5074682;28;20196;-70
2021/12/04 07:12:58;;;;;;;17.70;14.70;;;;;;;;;;5074661;28;20294;-70
2021/12/04 07:15:29;;;;;;;15.05;13.45;;;;;;;;;;5074868;28;20279;-70
2021/12/04 07:17:57;;;;;;;13.80;12.00;;;;;;;;;;5074931;28;20519;-70
2021/12/04 07:20:24;;;;;;;18.27;11.15;;;;;;;;;;5074263;28;20279;-70
2021/12/04 07:22:51;;;;;;;12.15;10.27;;;;;;;;;;5074616;28;20232;-70
2021/12/04 07:25:19;;;;;;;13.05;11.05;;;;;;;;;;5074212;28;20291;-70
2021/12/04 07:27:47;;;;;;;14.27;11.15;;;;;;;;;;5073686;28;20228;-70
2021/12/04 07:30:15;;;;;;;15.40;10.50;;;;;;;;;;5075118;28;20191;-70
2021/12/04 07:32:44;;;;;;;16.10;10.98;;;;;;;;;;5074910;28;20208;-70
2021/12/04 07:35:12;;;;;;;12.10;10.70;;;;;;;;;;5074012;28;20249;-69
2021/12/04 07:37:39;;;;;;;11.32;10.02;;;;;;;;;;5074576;28;20606;-70
2021/12/04 07:40:07;;;;;;;12.10;10.80;;;;;;;;;;5074063;28;20283;-69
2021/12/04 07:42:34;;;;;;;13.15;9.80;;;;;;;;;;5073999;28;20207;-70
2021/12/04 07:45:02;;;;;;;11.55;10.20;;;;;;;;;;5074289;28;20231;-70
2021/12/04 07:47:29;;;;;;;12.15;10.95;;;;;;;;;;5074071;28;20226;-70
2021/12/04 07:49:57;;;;;;;14.15;12.05;;;;;;;;;;5074071;28;20289;-70
2021/12/04 07:52:25;;;;;;;13.38;11.07;;;;;;;;;;5073808;28;20291;-70
2021/12/04 07:54:52;;;;;;;13.40;10.60;;;;;;;;;;5074284;28;20294;-70
2021/12/04 07:57:20;;;;;;;11.90;9.75;;;;;;;;;;5074397;28;20735;-70
2021/12/04 07:59:47;;;;;;;12.02;10.73;;;;;;;;;;5073605;28;20239;-70
2021/12/04 08:02:15;;;;;;;9.02;8.13;;;;;;;;;;5073948;28;20193;-70
2021/12/04 08:04:42;;;;;;;11.75;10.15;;;;;;;;;;5073661;28;20208;-70
2021/12/04 08:07:11;;;;;;;11.75;9.93;;;;;;;;;;5074075;28;20246;-70
2021/12/04 08:09:38;;;;;;;10.48;9.35;;;;;;;;;;5073880;28;20673;-70
2021/12/04 08:12:05;;;;;;;10.73;9.48;;;;;;;;;;5074021;28;20281;-70
2021/12/04 08:14:33;;;;;;;9.85;8.70;;;;;;;;;;5073672;28;20675;-70
2021/12/04 08:17:00;;;;;;;9.52;8.57;;;;;;;;;;5073637;28;20286;-71
2021/12/04 08:19:27;;;;;;;10.23;9.15;;;;;;;;;;5073615;28;20226;-71
2021/12/04 08:21:54;;;;;;;8.73;7.90;;;;;;;;;;5073995;28;20201;-70
2021/12/04 08:24:23;;;;;;;11.02;9.13;;;;;;;;;;5073755;28;20566;-70
2021/12/04 08:26:50;;;;;;;10.82;8.55;;;;;;;;;;5073458;28;20289;-70
2021/12/04 08:29:17;;;;;;;8.80;7.90;;;;;;;;;;5073361;28;20282;-70
2021/12/04 08:31:46;;;;;;;9.00;7.57;;;;;;;;;;5073590;28;20284;-70
2021/12/04 08:34:14;;;;;;;9.40;8.50;;;;;;;;;;5073710;28;20251;-70
2021/12/04 08:36:41;;;;;;;8.45;7.55;;;;;;;;;;5073647;28;20203;-69
2021/12/04 08:39:08;;;;;;;7.97;7.15;;;;;;;;;;5073074;28;20287;-70
2021/12/04 08:41:37;;;;;;;10.10;8.50;;;;;;;;;;5073246;28;20198;-70
2021/12/04 08:44:05;;;;;;;9.15;8.10;;;;;;;;;;5073170;28;20757;-70
2021/12/04 08:46:34;;;;;;;11.25;7.68;;;;;;;;;;5073223;28;20205;-70
2021/12/04 08:49:02;;;;;;;9.55;7.88;;;;;;;;;;5073380;28;20206;-70
2021/12/04 08:51:29;;;;;;;9.20;8.30;;;;;;;;;;5073517;28;20197;-70
2021/12/04 08:53:57;;;;;;;9.38;7.65;;;;;;;;;;5073272;28;20236;-70
2021/12/04 08:56:24;;;;;;;9.20;8.30;;;;;;;;;;5073587;28;20204;-70
2021/12/04 08:58:53;;;;;;;8.10;7.22;;;;;;;;;;5074210;28;20589;-69
2021/12/04 09:01:24;;;;;;;8.32;7.32;;;;;;;;;;5073417;28;20291;-70
2021/12/04 09:03:52;;;;;;;10.63;8.45;;;;;;;;;;5073205;28;20242;-70
2021/12/04 09:06:20;;;;;;;8.45;7.65;;;;;;;;;;5073118;28;20291;-70
2021/12/04 09:08:48;;;;;;;8.50;7.35;;;;;;;;;;5073044;28;20692;-70
2021/12/04 09:11:18;;;;;;;9.07;7.22;;;;;;;;;;5073249;28;20291;-71
2021/12/04 09:13:46;;;;;;;9.98;9.02;;;;;;;;;;5073048;28;20285;-71
2021/12/04 09:16:16;;;;;;;8.18;7.47;;;;;;;;;;5073780;28;20196;-71
2021/12/04 09:18:43;;;;;;;8.15;7.00;;;;;;;;;;5073816;28;20229;-71
2021/12/04 09:21:11;;;;;;;8.18;7.32;;;;;;;;;;5073897;28;20199;-69
2021/12/04 09:23:40;;;;;;;10.68;8.27;;;;;;;;;;5071697;28;20202;-69
2021/12/04 09:26:12;;;;;;;9.85;8.35;;;;;;;;;;5073069;28;20596;-69
2021/12/04 09:28:46;;;;;;;10.50;8.77;;;;;;;;;;5073555;28;20186;-70
2021/12/04 09:31:33;;;;;;;10.20;8.20;;;;;;;;;;5073395;28;20218;-69
2021/12/04 09:34:14;;;;;;;9.27;8.27;;;;;;;;;;5073404;28;20271;-70
2021/12/04 09:37:01;;;;;;;10.35;7.90;;;;;;;;;;5072806;28;20191;-70
2021/12/04 10:01:46;;;;;;;8.60;7.75;;;;;;;;;;5076435;28;20252;-69
2021/12/04 10:04:38;;;;;;;9.60;8.60;;;;;;;;;;5076351;28;20228;-69
2021/12/04 10:18:44;;;;;;;8.95;7.13;;;;;;;;;;5075987;28;20202;-69
2021/12/04 10:21:39;;;;;;;8.85;7.65;;;;;;;;;;5075864;28;20276;-70
2021/12/04 10:24:31;;;;;;;8.15;7.35;;;;;;;;;;5075514;28;20217;-69
2021/12/04 10:32:39;;;;;;;9.30;8.40;;;;;;;;;;5075720;28;20209;-69
2021/12/04 10:35:09;;;;;;;10.35;7.13;;;;;;;;;;5075671;28;20259;-71
2021/12/04 10:37:45;;;;;;;9.75;7.65;;;;;;;;;;5075698;28;20243;-70
2021/12/04 10:40:13;;;;;;;8.30;7.20;;;;;;;;;;5075726;28;20239;-77
2021/12/04 10:42:43;;;;;;;9.10;8.20;;;;;;;;;;5075409;28;20198;-77
2021/12/04 10:45:11;;;;;;;9.20;7.22;;;;;;;;;;5075643;28;20209;-77
2021/12/04 10:47:38;;;;;;;8.57;7.78;;;;;;;;;;5075965;28;20198;-77
2021/12/04 10:50:17;;;;;;;10.40;7.50;;;;;;;;;;5075252;28;20724;-77
2021/12/04 10:52:51;;;;;;;7.78;6.78;;;;;;;;;;5075296;28;20196;-77
2021/12/04 10:55:22;;;;;;;9.18;8.27;;;;;;;;;;5075597;28;20193;-78
2021/12/04 11:00:55;;;;;;;9.48;8.23;;;;;;;;;;5074883;28;20185;-77
2021/12/04 11:03:37;;;;;;;8.48;7.40;;;;;;;;;;5075126;28;20766;-77
2021/12/04 11:22:56;;;;;;;8.30;7.43;;;;;;;;;;5071874;28;20620;-76
2021/12/04 11:25:38;;;;;;;10.65;9.10;;;;;;;;;;5075003;28;20661;-75
2021/12/04 11:28:23;;;;;;;10.75;8.15;;;;;;;;;;5074777;28;20190;-76
2021/12/04 11:36:35;;;;;;;9.98;7.82;;;;;;;;;;5074446;28;20201;-75
2021/12/04 11:41:56;;;;;;;8.23;7.43;;;;;;;;;;5074499;28;20279;-76
2021/12/04 11:44:26;;;;;;;9.63;7.78;;;;;;;;;;5074264;28;20215;-75
2021/12/04 11:46:56;;;;;;;8.93;7.47;;;;;;;;;;5073946;28;20207;-76
2021/12/04 11:49:25;;;;;;;13.55;8.20;;;;;;;;;;5074508;28;20185;-76
2021/12/04 11:51:57;;;;;;;10.30;7.47;;;;;;;;;;5073990;28;20208;-75
2021/12/04 11:54:25;;;;;;;11.23;9.00;;;;;;;;;;5074291;28;20196;-74
2021/12/04 11:57:01;;;;;;;10.93;9.63;;;;;;;;;;5074341;28;20236;-75
2021/12/04 11:59:29;;;;;;;9.50;8.50;;;;;;;;;;5073856;28;20273;-74
2021/12/04 12:01:57;;;;;;;9.93;8.88;;;;;;;;;;5073798;28;20283;-70
2021/12/04 12:04:32;;;;;;;11.88;10.60;;;;;;;;;;5073176;28;20731;-69
2021/12/04 12:07:10;;;;;;;12.05;10.77;;;;;;;;;;5074136;28;20189;-81
2021/12/04 12:09:39;;;;;;;14.75;11.60;;;;;;;;;;5073714;28;20709;-83
2021/12/04 12:12:11;;;;;;;11.95;10.30;;;;;;;;;;5073045;28;20197;-81
2021/12/04 12:14:43;;;;;;;10.98;9.85;;;;;;;;;;5074985;28;20186;-83
2021/12/04 12:17:10;;;;;;;15.15;12.00;;;;;;;;;;5073881;28;20238;-84
2021/12/04 12:19:40;;;;;;;13.40;11.10;;;;;;;;;;5073617;28;20233;-83
2021/12/04 12:22:15;;;;;;;13.30;10.13;;;;;;;;;;5074151;28;20209;-84
2021/12/04 12:27:39;;;;;;;10.68;9.30;;;;;;;;;;5074280;28;20264;-85
2021/12/04 12:33:09;;;;;;;8.40;7.60;;;;;;;;;;5074298;28;20203;-84
2021/12/04 12:38:36;;;;;;;10.82;9.77;;;;;;;;;;5074248;28;20700;-84
2021/12/04 12:41:05;;;;;;;8.95;8.05;;;;;;;;;;5074535;28;20220;-84
2021/12/04 12:43:41;;;;;;;9.23;8.35;;;;;;;;;;5074145;28;20201;-83
2021/12/04 12:46:08;;;;;;;8.95;7.95;;;;;;;;;;5074282;28;20201;-83
2021/12/04 12:48:55;;;;;;;7.47;6.68;;;;;;;;;;5074282;28;20200;-81
2021/12/04 12:51:26;;;;;;;7.90;7.20;;;;;;;;;;5074405;28;20276;-84
2021/12/04 12:53:53;;;;;;;9.20;7.32;;;;;;;;;;5074429;28;20239;-85
2021/12/04 12:56:22;;;;;;;6.32;5.72;;;;;;;;;;5075119;28;20200;-84
2021/12/04 12:58:54;;;;;;;8.68;6.65;;;;;;;;;;5073929;28;20329;-83
2021/12/04 13:12:41;;;;;;;7.85;6.68;;;;;;;;;;5073083;28;20177;-83
2021/12/04 13:15:10;;;;;;;7.05;6.38;;;;;;;;;;5073563;28;20310;-80
2021/12/04 13:17:39;;;;;;;7.68;6.35;;;;;;;;;;5073365;28;20242;-73
2021/12/04 13:20:07;;;;;;;6.93;6.32;;;;;;;;;;5072772;28;20201;-73
2021/12/04 13:22:35;;;;;;;7.20;6.40;;;;;;;;;;5073763;28;20287;-70
2021/12/04 13:25:10;;;;;;;7.70;6.95;;;;;;;;;;5074211;28;20218;-72
2021/12/04 13:30:05;;;;;;;6.15;5.65;;;;;;;;;;5076638;28;20548;-71
2021/12/04 13:32:35;;;;;;;6.28;5.68;;;;;;;;;;5077216;28;20194;-71
2021/12/04 13:35:08;;;;;;;7.50;6.40;;;;;;;;;;5075714;28;20271;-71
2021/12/04 13:37:35;;;;;;;6.80;6.20;;;;;;;;;;5076579;28;20194;-71
2021/12/04 13:40:06;;;;;;;7.53;6.82;;;;;;;;;;5077159;28;20205;-71
2021/12/04 13:42:33;;;;;;;9.27;7.18;;;;;;;;;;5077319;28;20201;-72
2021/12/04 13:45:01;;;;;;;8.95;8.02;;;;;;;;;;5076292;28;20693;-72
2021/12/04 13:47:28;;;;;;;9.48;8.00;;;;;;;;;;5076614;28;20245;-72
2021/12/04 13:50:00;;;;;;;7.70;6.90;;;;;;;;;;5076602;28;20280;-72
2021/12/04 13:52:28;;;;;;;10.93;9.32;;;;;;;;;;5077319;28;20189;-71
2021/12/04 13:54:59;;;;;;;7.20;6.50;;;;;;;;;;5076457;28;20287;-72
2021/12/04 13:57:26;;;;;;;6.88;6.18;;;;;;;;;;5077246;28;20279;-72
2021/12/04 13:59:58;;;;;;;6.80;6.20;;;;;;;;;;5076150;28;20741;-72
2021/12/04 14:02:27;;;;;;;7.00;6.20;;;;;;;;;;5076411;28;20280;-70
2021/12/04 14:05:00;;;;;;;8.65;6.88;;;;;;;;;;5076381;28;20219;-73
2021/12/04 14:07:27;;;;;;;6.10;5.47;;;;;;;;;;5076035;28;20276;-72
2021/12/04 14:09:55;;;;;;;6.28;5.78;;;;;;;;;;5076010;28;20197;-71
2021/12/04 14:12:22;;;;;;;6.88;6.13;;;;;;;;;;5076080;28;20195;-72
2021/12/04 14:14:50;;;;;;;6.13;5.55;;;;;;;;;;5076364;28;20236;-73
2021/12/04 14:17:18;;;;;;;6.70;6.03;;;;;;;;;;5076653;28;20283;-73
2021/12/04 14:19:46;;;;;;;8.07;6.88;;;;;;;;;;5076476;28;20283;-73
2021/12/04 14:22:16;;;;;;;6.43;5.82;;;;;;;;;;5076164;28;20198;-71
2021/12/04 14:24:44;;;;;;;6.78;6.07;;;;;;;;;;5076500;28;20223;-71
2021/12/04 14:27:14;;;;;;;10.13;5.88;;;;;;;;;;5076036;28;20208;-72
2021/12/04 14:29:44;;;;;;;6.45;5.85;;;;;;;;;;5075762;28;20190;-72
2021/12/04 14:32:11;;;;;;;7.00;6.38;;;;;;;;;;5075830;28;20197;-72
2021/12/04 14:34:39;;;;;;;11.48;6.63;;;;;;;;;;5075518;28;20224;-71
2021/12/04 14:37:10;;;;;;;6.85;6.03;;;;;;;;;;5075189;28;20717;-71
2021/12/04 14:39:39;;;;;;;7.45;6.75;;;;;;;;;;5076688;28;20278;-72
2021/12/04 14:42:14;;;;;;;8.10;7.22;;;;;;;;;;5075849;28;20654;-71
2021/12/04 14:45:04;;;;;;;7.45;6.65;;;;;;;;;;5076024;28;20616;-73
2021/12/04 14:47:33;;;;;;;7.97;6.35;;;;;;;;;;5075591;28;20344;-71
2021/12/04 14:50:02;;;;;;;7.10;6.43;;;;;;;;;;5075783;28;20193;-73
2021/12/04 14:52:31;;;;;;;7.93;5.90;;;;;;;;;;5076228;28;20204;-71
2021/12/04 14:55:12;;;;;;;7.53;6.65;;;;;;;;;;5075255;28;20194;-71
2021/12/04 14:57:41;;;;;;;7.05;6.35;;;;;;;;;;5074786;28;20291;-71
2021/12/04 15:00:10;;;;;;;8.60;6.45;;;;;;;;;;5075695;28;20256;-71
2021/12/04 15:02:38;;;;;;;7.85;6.05;;;;;;;;;;5075089;28;20312;-71
2021/12/04 15:05:06;;;;;;;6.78;6.15;;;;;;;;;;5074831;28;20273;-70
2021/12/04 15:07:36;;;;;;;7.57;6.65;;;;;;;;;;5075462;28;20281;-71
2021/12/04 15:10:18;;;;;;;9.02;6.07;;;;;;;;;;5074862;28;20229;-71
2021/12/04 15:12:55;;;;;;;;;;;;;;;;;;;;;
2021/12/04 15:15:25;;;;;;;8.57;7.68;;;;;;;;;;5072897;28;20205;-72
2021/12/04 15:17:56;;;;;;;8.85;7.50;;;;;;;;;;5074631;28;20201;-70
2021/12/04 15:20:30;;;;;;;8.05;7.25;;;;;;;;;;5074655;28;20197;-71
2021/12/04 15:23:03;;;;;;;7.97;6.55;;;;;;;;;;5074652;28;20190;-71
2021/12/04 15:25:37;;;;;;;10.23;8.07;;;;;;;;;;5075118;28;20617;-70
2021/12/04 15:28:16;;;;;;;7.95;6.40;;;;;;;;;;5075019;28;20184;-70
2021/12/04 15:30:51;;;;;;;9.68;8.77;;;;;;;;;;5074934;28;20189;-70
2021/12/04 15:33:22;;;;;;;8.63;7.72;;;;;;;;;;5074682;28;20242;-70
2021/12/04 15:35:51;;;;;;;9.65;8.75;;;;;;;;;;5074631;28;20240;-71
2021/12/04 15:38:25;;;;;;;8.52;7.75;;;;;;;;;;5074809;28;20545;-70
2021/12/04 15:41:02;;;;;;;13.75;9.25;;;;;;;;;;5074329;28;20188;-71
2021/12/04 15:43:37;;;;;;;9.70;8.20;;;;;;;;;;5074310;28;20236;-70
2021/12/04 15:46:16;;;;;;;10.27;8.80;;;;;;;;;;5074950;28;20212;-71
2021/12/04 15:54:34;;;;;;;11.60;9.18;;;;;;;;;;5040877;28;20193;-72
2021/12/04 15:57:10;;;;;;;13.68;10.93;;;;;;;;;;5074914;28;20204;-72
2021/12/04 15:59:37;;;;;;;12.38;9.90;;;;;;;;;;5074580;28;20228;-72
2021/12/04 16:02:11;;;;;;;12.20;9.88;;;;;;;;;;5073985;28;20231;-72
2021/12/04 16:04:39;;;;;;;11.93;10.13;;;;;;;;;;5073853;28;20297;-72
2021/12/04 16:07:06;;;;;;;12.43;9.82;;;;;;;;;;5074910;28;20537;-71
2021/12/04 16:09:35;;;;;;;10.50;9.00;;;;;;;;;;5074197;28;20613;-72
2021/12/04 16:12:05;;;;;;;12.00;10.60;;;;;;;;;;5073819;28;20616;-73
2021/12/04 16:14:33;;;;;;;11.30;10.15;;;;;;;;;;5073765;28;20187;-72
2021/12/04 16:17:01;;;;;;;12.05;10.35;;;;;;;;;;5074426;28;20288;-73
2021/12/04 16:19:30;;;;;;;9.95;8.40;;;;;;;;;;5074190;28;20249;-72
2021/12/04 16:22:01;;;;;;;11.00;9.18;;;;;;;;;;5073525;28;20192;-72
2021/12/04 16:24:29;;;;;;;10.32;8.60;;;;;;;;;;5073879;28;20183;-72
2021/12/04 16:27:01;;;;;;;13.73;8.15;;;;;;;;;;5073457;28;20775;-72
2021/12/04 16:29:35;;;;;;;11.63;9.18;;;;;;;;;;5073938;28;20243;-71
2021/12/04 16:32:30;;;;;;;12.18;10.13;;;;;;;;;;5073372;28;20641;-72
2021/12/04 16:35:11;;;;;;;12.95;10.88;;;;;;;;;;5073855;28;20275;-72
2021/12/04 16:37:42;;;;;;;11.65;10.52;;;;;;;;;;5073436;28;20193;-72
2021/12/04 16:40:11;;;;;;;13.88;11.10;;;;;;;;;;5073361;28;20694;-72
2021/12/04 16:42:39;;;;;;;15.23;12.95;;;;;;;;;;5073248;28;20231;-71
2021/12/04 16:45:11;;;;;;;14.82;11.65;;;;;;;;;;5073860;28;20231;-71
2021/12/04 16:47:43;;;;;;;12.73;11.38;;;;;;;;;;5073736;28;20540;-71
2021/12/04 16:50:14;;;;;;;13.15;10.82;;;;;;;;;;5073558;28;20238;-71
2021/12/04 16:55:41;;;;;;;14.07;12.60;;;;;;;;;;5073114;28;20184;-71
2021/12/04 16:58:12;;;;;;;14.63;13.02;;;;;;;;;;5073693;28;20188;-72
2021/12/04 17:00:42;;;;;;;18.40;12.05;;;;;;;;;;5073106;28;20188;-71
2021/12/04 17:03:09;;;;;;;13.38;11.90;;;;;;;;;;5072902;28;20267;-73
2021/12/04 17:05:36;;;;;;;16.90;11.98;;;;;;;;;;5073269;28;20270;-70
2021/12/04 17:08:04;;;;;;;12.98;10.73;;;;;;;;;;5073355;28;20192;-72
2021/12/04 17:10:31;;;;;;;14.07;11.95;;;;;;;;;;5073074;28;20236;-72
2021/12/04 17:12:59;;;;;;;14.77;11.80;;;;;;;;;;5073060;28;20232;-71